SBUL/UDI METAR and TAF weather

Enter ICAO airport designator
Station Type Date Time Source
SBUL METAR 2020/04/05 17:00 UTC NOAA

SBUL 051700Z 18006KT 9999 BKN049 30/15 Q1017


Station Type Date Time Source
SBUL Decoded METAR 2020/04/05 17:00 UTC NOAA

Uberlandia , Brazil (SBUL) 18-53S 048-14W
Apr 05, 2020 - 01:00 PM EDT / 2020.04.05 1700 UTC
Wind: from the S (180 degrees) at 7 MPH (6 KT):0
Visibility: greater than 7 mile(s):0
Sky conditions: mostly cloudy
Temperature: 86 F (30 C)
Dew Point: 59 F (15 C)
Relative Humidity: 40%
Pressure (altimeter): 30.03 in. Hg (1017 hPa)
ob: SBUL 051700Z 18006KT 9999 BKN049 30/15 Q1017
cycle: 17

Station Type Date Time Source
SBUL TAF 2020/04/05 12:36 UTC NOAA

TAF SBUL 051000Z 0512/0524 08005KT CAVOK TN22/0512Z TX29/0517Z
BECMG 0512/0514 33005KT FEW030
BECMG 0514/0516 23005KT SCT035
BECMG 0520/0522 17007KT CAVOK
RMK PHH

Example: see airport list